La Casita, Texas
Current Conditions -  °F | °C
As of 4:35 AM on Sunday 21 Dec 2014 (Local Time) from KEBG Reporting Station
Overcast Overcast  
Wind Chill: 56°   Ceiling: 1100
Heat Index: 56°   Visibility: 7mi
Dew Point: 52°   Wind: 5mph
Humidity: 88%   Direction: 10°N
Pressure: 30.09"   Gusts: NA
Location:  26.5735°N, 98.695°W
Report Text: KEBG 211035Z AUTO 01004KT 7SM OVC011 13/11 A3009 RMK AO2 T01320112
Loading
Personal Weather Stations






























Interactive Weather Map New forecast layout! Learn more

10-Day Weather Forecast

Advertisements
Track Severe Weather on mobile